Time;durP1;ratioP1;P1;durP2;ratioP2;P2;SDS_P1;SDS_P2;PMS_P1;PMS_P2;Temp;Humidity;BMP_temperature;BMP_pressure;BME280_temperature;BME280_humidity;BME280_pressure;Samples;Min_cycle;Max_cycle;Signal;HPM_P1;HPM_P2
2023/09/03 00:02:15;;;;;;;7.28;6.43;;;;;;;;;;4987148;28;20050;-76
2023/09/03 00:04:41;;;;;;;7.32;6.47;;;;;;;;;;4999422;28;20062;-80
2023/09/03 00:07:07;;;;;;;7.05;6.20;;;;;;;;;;4987857;28;20029;-79
2023/09/03 00:09:34;;;;;;;6.88;6.10;;;;;;;;;;4971964;28;20504;-79
2023/09/03 00:12:00;;;;;;;10.60;8.18;;;;;;;;;;4981317;28;20140;-79
2023/09/03 00:14:26;;;;;;;10.13;7.05;;;;;;;;;;4983947;28;20045;-80
2023/09/03 00:16:52;;;;;;;8.13;7.32;;;;;;;;;;4984071;28;20173;-78
2023/09/03 00:19:18;;;;;;;11.52;7.95;;;;;;;;;;5003533;28;20027;-76
2023/09/03 00:21:44;;;;;;;8.23;6.85;;;;;;;;;;4979466;28;20034;-76
2023/09/03 00:24:11;;;;;;;9.98;8.57;;;;;;;;;;4982480;28;20089;-77
2023/09/03 00:26:37;;;;;;;8.98;7.68;;;;;;;;;;4995169;28;20041;-76
2023/09/03 00:29:03;;;;;;;11.45;7.15;;;;;;;;;;4979947;28;20030;-77
2023/09/03 00:31:29;;;;;;;7.60;6.85;;;;;;;;;;4986169;28;20065;-76
2023/09/03 00:33:55;;;;;;;6.78;6.07;;;;;;;;;;4984389;28;20085;-78
2023/09/03 00:36:21;;;;;;;7.65;6.53;;;;;;;;;;4982399;28;20046;-79
2023/09/03 00:38:50;;;;;;;8.20;6.47;;;;;;;;;;4993899;28;20037;-80
2023/09/03 00:41:17;;;;;;;7.78;6.80;;;;;;;;;;4975817;28;20104;-79
2023/09/03 00:43:43;;;;;;;7.97;6.93;;;;;;;;;;4982744;28;20066;-79
2023/09/03 00:46:09;;;;;;;7.70;6.90;;;;;;;;;;4983219;28;20934;-79
2023/09/03 00:48:36;;;;;;;7.82;7.00;;;;;;;;;;4987848;28;20057;-77
2023/09/03 00:51:05;;;;;;;8.50;7.18;;;;;;;;;;4985790;28;20436;-79
2023/09/03 00:53:32;;;;;;;8.77;7.35;;;;;;;;;;4989064;28;20030;-80
2023/09/03 00:55:59;;;;;;;7.43;6.72;;;;;;;;;;4984815;28;20365;-76
2023/09/03 00:58:25;;;;;;;9.27;7.90;;;;;;;;;;4989076;28;20546;-76
2023/09/03 01:00:51;;;;;;;8.52;6.90;;;;;;;;;;4985094;28;20113;-76
2023/09/03 01:03:17;;;;;;;9.82;7.28;;;;;;;;;;4987464;28;20801;-77
2023/09/03 01:05:43;;;;;;;9.07;7.88;;;;;;;;;;4992025;28;20058;-78
2023/09/03 01:08:10;;;;;;;9.95;7.03;;;;;;;;;;4974125;28;20485;-79
2023/09/03 01:10:42;;;;;;;8.07;7.28;;;;;;;;;;4982675;28;20122;-78
2023/09/03 01:13:27;;;;;;;10.02;7.45;;;;;;;;;;4987706;28;20030;-77
2023/09/03 01:15:54;;;;;;;10.73;7.10;;;;;;;;;;4989761;28;20076;-80
2023/09/03 01:18:20;;;;;;;9.57;7.88;;;;;;;;;;4986029;28;20057;-79
2023/09/03 01:20:55;;;;;;;11.98;8.10;;;;;;;;;;4989461;28;20117;-78
2023/09/03 01:23:21;;;;;;;9.77;8.50;;;;;;;;;;4981357;28;20066;-78
2023/09/03 01:25:56;;;;;;;10.65;8.27;;;;;;;;;;4989856;28;20484;-77
2023/09/03 01:28:22;;;;;;;9.02;7.75;;;;;;;;;;4978338;28;20077;-79
2023/09/03 01:30:50;;;;;;;11.32;8.57;;;;;;;;;;4999990;28;20035;-78
2023/09/03 01:33:17;;;;;;;9.32;7.30;;;;;;;;;;4983591;28;20026;-77
2023/09/03 01:35:43;;;;;;;12.00;10.63;;;;;;;;;;4986145;28;20034;-77
2023/09/03 01:38:09;;;;;;;29.20;20.98;;;;;;;;;;4979742;28;20050;-77
2023/09/03 01:40:36;;;;;;;14.10;8.93;;;;;;;;;;4987248;28;20431;-77
2023/09/03 01:43:02;;;;;;;11.20;10.00;;;;;;;;;;4975818;28;20069;-78
2023/09/03 01:45:34;;;;;;;8.85;7.95;;;;;;;;;;4985474;28;20041;-78
2023/09/03 01:48:07;;;;;;;10.90;7.40;;;;;;;;;;4993659;28;20030;-77
2023/09/03 01:50:37;;;;;;;9.55;7.45;;;;;;;;;;4986738;28;20032;-77
2023/09/03 01:53:30;;;;;;;10.93;7.90;;;;;;;;;;5001847;28;20085;-77
2023/09/03 01:56:00;;;;;;;9.85;7.93;;;;;;;;;;4982579;28;20515;-78
2023/09/03 01:58:28;;;;;;;9.10;8.18;;;;;;;;;;4987854;28;20038;-78
2023/09/03 02:00:56;;;;;;;7.88;7.13;;;;;;;;;;4989115;28;20034;-78
2023/09/03 02:03:23;;;;;;;10.18;8.15;;;;;;;;;;4981704;28;20499;-77
2023/09/03 02:05:50;;;;;;;8.60;7.78;;;;;;;;;;4984799;28;20058;-77
2023/09/03 02:08:16;;;;;;;9.90;8.40;;;;;;;;;;4986113;28;20357;-77
2023/09/03 02:10:42;;;;;;;8.65;7.75;;;;;;;;;;4981073;28;20553;-77
2023/09/03 02:13:08;;;;;;;10.27;7.22;;;;;;;;;;4990357;28;20504;-77
2023/09/03 02:15:34;;;;;;;8.20;7.40;;;;;;;;;;4976416;28;20499;-77
2023/09/03 02:18:00;;;;;;;9.55;7.20;;;;;;;;;;4988086;28;20041;-77
2023/09/03 02:20:26;;;;;;;8.60;7.57;;;;;;;;;;4986891;28;20041;-77
2023/09/03 02:22:52;;;;;;;12.40;8.20;;;;;;;;;;4987206;28;20030;-77
2023/09/03 02:25:18;;;;;;;12.40;8.52;;;;;;;;;;4981967;28;20034;-77
2023/09/03 02:27:44;;;;;;;8.45;7.65;;;;;;;;;;4984515;28;20033;-76
2023/09/03 02:30:11;;;;;;;9.77;8.20;;;;;;;;;;4981937;28;20026;-76
2023/09/03 02:32:37;;;;;;;11.15;8.27;;;;;;;;;;4973480;28;20109;-76
2023/09/03 02:35:03;;;;;;;8.50;7.63;;;;;;;;;;4990522;28;20097;-77
2023/09/03 02:37:29;;;;;;;12.57;7.40;;;;;;;;;;4983310;28;20034;-77
2023/09/03 02:39:55;;;;;;;10.98;7.93;;;;;;;;;;4979248;28;20027;-77
2023/09/03 02:42:21;;;;;;;8.75;7.93;;;;;;;;;;4977284;28;20041;-77
2023/09/03 02:44:47;;;;;;;8.07;7.32;;;;;;;;;;4979169;28;20042;-77
2023/09/03 02:47:13;;;;;;;9.07;8.05;;;;;;;;;;4977381;28;20125;-76
2023/09/03 02:49:39;;;;;;;8.57;7.68;;;;;;;;;;4987161;28;20031;-77
2023/09/03 02:52:05;;;;;;;10.45;7.13;;;;;;;;;;5000715;28;20366;-77
2023/09/03 02:54:31;;;;;;;8.45;7.55;;;;;;;;;;4978486;28;20042;-77
2023/09/03 02:56:57;;;;;;;8.48;7.50;;;;;;;;;;4984503;28;20031;-77
2023/09/03 02:59:23;;;;;;;8.70;7.75;;;;;;;;;;4987256;28;20546;-78
2023/09/03 03:01:49;;;;;;;8.35;7.55;;;;;;;;;;4979937;28;20650;-78
2023/09/03 03:04:16;;;;;;;12.13;8.77;;;;;;;;;;4986021;28;20388;-77
2023/09/03 03:06:42;;;;;;;9.70;8.73;;;;;;;;;;4989764;28;20505;-78
2023/09/03 03:09:08;;;;;;;11.65;8.05;;;;;;;;;;4999201;28;20044;-77
2023/09/03 03:11:34;;;;;;;10.43;8.60;;;;;;;;;;5001290;28;20027;-76
2023/09/03 03:14:00;;;;;;;11.05;8.98;;;;;;;;;;4985651;28;20044;-76
2023/09/03 03:16:26;;;;;;;9.02;8.13;;;;;;;;;;4987943;28;20036;-76
2023/09/03 03:18:52;;;;;;;9.20;8.25;;;;;;;;;;4980551;28;20043;-77
2023/09/03 03:21:19;;;;;;;8.32;7.45;;;;;;;;;;4982383;28;20034;-76
2023/09/03 03:23:52;;;;;;;7.03;6.38;;;;;;;;;;4980289;28;20030;-76
2023/09/03 03:26:21;;;;;;;6.95;6.35;;;;;;;;;;4995430;28;20030;-76
2023/09/03 03:28:47;;;;;;;5.60;5.10;;;;;;;;;;4984359;28;20037;-76
2023/09/03 03:31:14;;;;;;;10.07;6.05;;;;;;;;;;4990550;28;20038;-76
2023/09/03 03:33:41;;;;;;;6.22;5.70;;;;;;;;;;4983002;28;20050;-76
2023/09/03 03:36:08;;;;;;;6.90;6.30;;;;;;;;;;4989393;28;20035;-76
2023/09/03 03:38:34;;;;;;;7.47;6.80;;;;;;;;;;4986502;28;20045;-76
2023/09/03 03:41:07;;;;;;;8.18;7.38;;;;;;;;;;4988265;28;20137;-76
2023/09/03 03:43:34;;;;;;;7.35;6.72;;;;;;;;;;4987911;28;20026;-77
2023/09/03 03:46:00;;;;;;;9.95;7.13;;;;;;;;;;4988349;28;20039;-77
2023/09/03 03:48:26;;;;;;;8.32;7.55;;;;;;;;;;4990400;28;20067;-77
2023/09/03 03:50:55;;;;;;;7.35;6.65;;;;;;;;;;4986219;28;20046;-77
2023/09/03 03:53:21;;;;;;;9.98;7.07;;;;;;;;;;4994183;28;20116;-76
2023/09/03 03:55:47;;;;;;;8.05;5.95;;;;;;;;;;4999117;28;20050;-76
2023/09/03 03:58:14;;;;;;;6.53;5.93;;;;;;;;;;4987590;28;20034;-76
2023/09/03 04:00:40;;;;;;;6.72;5.53;;;;;;;;;;4990490;28;20034;-77
2023/09/03 04:03:06;;;;;;;6.55;5.95;;;;;;;;;;4989378;28;20026;-76
2023/09/03 04:05:32;;;;;;;5.85;5.32;;;;;;;;;;4980723;28;20070;-76
2023/09/03 04:07:58;;;;;;;6.55;5.05;;;;;;;;;;4994447;28;20027;-76
2023/09/03 04:10:24;;;;;;;5.70;5.20;;;;;;;;;;4987420;28;20042;-76
2023/09/03 04:12:51;;;;;;;5.35;4.85;;;;;;;;;;4991149;28;20033;-77
2023/09/03 04:15:17;;;;;;;8.32;5.63;;;;;;;;;;4989714;28;20038;-76
2023/09/03 04:17:43;;;;;;;6.97;6.03;;;;;;;;;;4991306;28;20045;-76
2023/09/03 04:20:09;;;;;;;7.75;6.03;;;;;;;;;;4987252;28;20037;-76
2023/09/03 04:22:38;;;;;;;6.32;5.72;;;;;;;;;;4991850;28;20045;-76
2023/09/03 04:25:04;;;;;;;7.10;5.90;;;;;;;;;;4987709;28;20038;-76
2023/09/03 04:27:30;;;;;;;6.05;5.45;;;;;;;;;;4988282;28;20042;-77
2023/09/03 04:29:57;;;;;;;6.72;6.03;;;;;;;;;;4987706;28;20041;-76
2023/09/03 04:32:23;;;;;;;6.47;5.85;;;;;;;;;;5005039;28;20122;-76
2023/09/03 04:34:50;;;;;;;6.75;6.03;;;;;;;;;;4985502;28;20039;-76
2023/09/03 04:37:16;;;;;;;7.05;6.30;;;;;;;;;;4992327;28;20606;-76
2023/09/03 04:39:42;;;;;;;8.57;6.35;;;;;;;;;;4993616;28;20035;-77
2023/09/03 04:42:08;;;;;;;6.90;6.18;;;;;;;;;;4993529;28;20041;-77
2023/09/03 04:44:37;;;;;;;7.43;6.72;;;;;;;;;;4993359;28;20065;-77
2023/09/03 04:47:05;;;;;;;6.68;5.97;;;;;;;;;;4989654;28;20031;-77
2023/09/03 04:49:33;;;;;;;7.38;5.85;;;;;;;;;;4983718;28;20050;-76
2023/09/03 04:51:59;;;;;;;8.95;6.75;;;;;;;;;;4990083;28;20023;-77
2023/09/03 04:54:25;;;;;;;8.52;6.20;;;;;;;;;;4983631;28;20676;-76
2023/09/03 04:56:53;;;;;;;7.38;6.57;;;;;;;;;;4984106;28;20038;-77
2023/09/03 04:59:19;;;;;;;6.75;6.15;;;;;;;;;;4978325;28;20038;-77
2023/09/03 05:01:45;;;;;;;9.73;6.55;;;;;;;;;;4983047;28;20231;-79
2023/09/03 05:04:11;;;;;;;9.98;6.30;;;;;;;;;;4989064;28;20527;-81
2023/09/03 05:06:37;;;;;;;7.03;6.22;;;;;;;;;;4981658;28;20054;-78
2023/09/03 05:09:03;;;;;;;7.25;6.35;;;;;;;;;;4984814;28;20057;-82
2023/09/03 05:11:29;;;;;;;7.10;6.25;;;;;;;;;;4983100;28;20092;-79
2023/09/03 05:13:55;;;;;;;18.30;12.30;;;;;;;;;;4976831;28;20445;-84
2023/09/03 05:16:23;;;;;;;7.40;6.70;;;;;;;;;;4976532;28;20081;-81
2023/09/03 05:18:49;;;;;;;8.15;6.75;;;;;;;;;;4984827;28;20392;-81
2023/09/03 05:21:15;;;;;;;7.20;6.43;;;;;;;;;;4988193;28;20038;-81
2023/09/03 05:23:41;;;;;;;6.10;5.50;;;;;;;;;;4989175;28;20027;-80
2023/09/03 05:26:07;;;;;;;7.07;6.03;;;;;;;;;;4981653;28;20384;-80
2023/09/03 05:28:33;;;;;;;7.45;6.05;;;;;;;;;;4979535;28;20062;-81
2023/09/03 05:31:00;;;;;;;8.85;6.63;;;;;;;;;;4984204;28;20054;-82
2023/09/03 05:33:26;;;;;;;7.90;6.18;;;;;;;;;;4983985;28;20039;-83
2023/09/03 05:35:52;;;;;;;10.23;6.30;;;;;;;;;;4985519;28;20552;-85
2023/09/03 05:38:18;;;;;;;7.43;6.18;;;;;;;;;;4984943;28;20030;-85
2023/09/03 05:40:44;;;;;;;12.57;7.28;;;;;;;;;;4986341;28;20019;-80
2023/09/03 05:43:10;;;;;;;7.53;6.65;;;;;;;;;;4988330;28;20532;-82
2023/09/03 05:45:43;;;;;;;25.02;18.17;;;;;;;;;;4978918;28;20424;-85
2023/09/03 05:48:09;;;;;;;9.65;7.32;;;;;;;;;;4982421;28;20445;-80
2023/09/03 05:50:35;;;;;;;136.88;108.88;;;;;;;;;;4983867;28;20056;-83
2023/09/03 05:53:01;;;;;;;14.43;7.95;;;;;;;;;;4994465;28;20061;-81
2023/09/03 05:55:27;;;;;;;10.52;7.20;;;;;;;;;;4981246;28;20041;-78
2023/09/03 05:57:53;;;;;;;7.85;6.97;;;;;;;;;;4982819;28;20522;-78
2023/09/03 06:00:19;;;;;;;7.20;6.45;;;;;;;;;;4986866;28;20034;-80
2023/09/03 06:02:46;;;;;;;10.18;7.60;;;;;;;;;;4989220;28;20038;-80
2023/09/03 06:05:12;;;;;;;8.77;6.93;;;;;;;;;;4993102;28;20042;-81
2023/09/03 06:07:38;;;;;;;12.25;7.00;;;;;;;;;;4987567;28;20050;-81
2023/09/03 06:10:04;;;;;;;7.93;7.10;;;;;;;;;;4981159;28;20172;-77
2023/09/03 06:12:30;;;;;;;9.43;6.88;;;;;;;;;;4986779;28;20184;-85
2023/09/03 06:14:56;;;;;;;8.35;7.43;;;;;;;;;;4969590;28;20302;-83
2023/09/03 06:17:23;;;;;;;7.95;7.15;;;;;;;;;;4982870;28;20059;-85
2023/09/03 06:19:49;;;;;;;9.18;7.07;;;;;;;;;;4980232;28;20489;-80
2023/09/03 06:22:15;;;;;;;7.10;6.30;;;;;;;;;;4993088;28;20049;-84
2023/09/03 06:24:41;;;;;;;8.60;6.93;;;;;;;;;;4994158;28;20053;-79
2023/09/03 06:27:08;;;;;;;6.97;6.15;;;;;;;;;;4990824;28;20031;-80
2023/09/03 06:29:34;;;;;;;8.60;5.70;;;;;;;;;;4984547;28;20077;-79
2023/09/03 06:32:00;;;;;;;8.27;6.80;;;;;;;;;;4985317;28;20034;-81
2023/09/03 06:34:26;;;;;;;339.63;229.55;;;;;;;;;;4995252;28;20030;-83
2023/09/03 06:36:53;;;;;;;10.35;8.20;;;;;;;;;;4993811;28;20038;-81
2023/09/03 06:39:19;;;;;;;20.40;14.73;;;;;;;;;;4992764;28;20027;-81
2023/09/03 06:41:45;;;;;;;6.65;5.75;;;;;;;;;;4990802;28;20113;-80
2023/09/03 06:44:12;;;;;;;5.47;4.97;;;;;;;;;;4991265;28;20038;-82
2023/09/03 06:46:38;;;;;;;6.35;4.93;;;;;;;;;;4986174;28;20762;-79
2023/09/03 06:49:04;;;;;;;6.70;4.93;;;;;;;;;;4994530;28;20092;-78
2023/09/03 06:51:30;;;;;;;5.60;5.07;;;;;;;;;;4989806;28;20053;-77
2023/09/03 06:53:56;;;;;;;6.53;5.65;;;;;;;;;;4993694;28;20072;-78
2023/09/03 06:56:23;;;;;;;9.60;7.05;;;;;;;;;;4995202;28;20041;-77
2023/09/03 06:58:49;;;;;;;9.43;6.68;;;;;;;;;;4983254;28;20022;-78
2023/09/03 07:01:17;;;;;;;8.73;6.05;;;;;;;;;;4979873;28;20070;-78
2023/09/03 07:03:43;;;;;;;6.88;5.60;;;;;;;;;;4993044;28;20023;-80
2023/09/03 07:06:09;;;;;;;7.95;5.47;;;;;;;;;;4989282;28;20769;-80
2023/09/03 07:08:35;;;;;;;7.15;5.25;;;;;;;;;;4989755;28;20075;-78
2023/09/03 07:11:01;;;;;;;7.20;5.63;;;;;;;;;;4993390;28;20088;-77
2023/09/03 07:13:27;;;;;;;7.28;5.47;;;;;;;;;;4982636;28;20033;-86
2023/09/03 07:15:53;;;;;;;770.95;514.13;;;;;;;;;;4985892;28;20125;-80
2023/09/03 07:18:20;;;;;;;53.30;37.78;;;;;;;;;;4993170;28;20041;-80
2023/09/03 07:20:46;;;;;;;14.02;9.77;;;;;;;;;;4994702;28;20030;-79
2023/09/03 07:23:12;;;;;;;7.32;5.57;;;;;;;;;;4980652;28;20023;-77
2023/09/03 07:25:38;;;;;;;9.50;5.10;;;;;;;;;;4999985;28;20053;-78
2023/09/03 07:28:04;;;;;;;5.05;4.57;;;;;;;;;;4983086;28;20101;-79
2023/09/03 07:30:30;;;;;;;8.38;6.43;;;;;;;;;;4977737;28;20047;-78
2023/09/03 07:32:57;;;;;;;6.70;6.00;;;;;;;;;;4984858;28;20092;-78
2023/09/03 07:35:23;;;;;;;7.95;5.25;;;;;;;;;;4986803;28;20104;-77
2023/09/03 07:37:49;;;;;;;6.18;4.35;;;;;;;;;;4982968;28;20031;-77
2023/09/03 07:40:16;;;;;;;10.27;4.32;;;;;;;;;;4981665;28;20034;-77
2023/09/03 07:42:42;;;;;;;10.30;4.47;;;;;;;;;;4975212;28;20041;-77
2023/09/03 07:45:09;;;;;;;7.65;3.83;;;;;;;;;;4985160;28;20058;-77
2023/09/03 07:47:35;;;;;;;7.97;3.85;;;;;;;;;;4984409;28;20085;-80
2023/09/03 07:50:01;;;;;;;6.65;3.50;;;;;;;;;;4998979;28;20033;-78
2023/09/03 07:52:27;;;;;;;8.85;3.03;;;;;;;;;;4985183;28;20460;-81
2023/09/03 07:54:53;;;;;;;6.90;2.95;;;;;;;;;;4991678;28;20034;-81
2023/09/03 07:57:19;;;;;;;6.07;3.17;;;;;;;;;;4989629;28;20062;-81
2023/09/03 07:59:45;;;;;;;3.83;2.72;;;;;;;;;;4992110;28;20040;-83
2023/09/03 08:02:11;;;;;;;5.15;3.15;;;;;;;;;;4991374;28;20046;-82
2023/09/03 08:04:38;;;;;;;8.00;2.67;;;;;;;;;;4984197;28;20084;-78
2023/09/03 08:07:04;;;;;;;4.90;3.38;;;;;;;;;;4975438;28;20083;-78
2023/09/03 08:09:30;;;;;;;6.60;3.28;;;;;;;;;;4980493;28;20062;-78
2023/09/03 08:11:56;;;;;;;4.90;3.03;;;;;;;;;;4980543;28;20061;-80
2023/09/03 08:14:24;;;;;;;7.63;3.70;;;;;;;;;;4983316;28;20043;-81
2023/09/03 08:16:50;;;;;;;6.85;4.25;;;;;;;;;;4989077;28;20058;-84
2023/09/03 08:19:16;;;;;;;7.57;4.75;;;;;;;;;;4982593;28;20121;-81
2023/09/03 08:21:42;;;;;;;7.20;4.15;;;;;;;;;;4989762;28;20065;-82
2023/09/03 08:24:09;;;;;;;7.95;5.45;;;;;;;;;;4984631;28;20198;-83
2023/09/03 08:26:35;;;;;;;6.65;3.63;;;;;;;;;;4986764;28;20427;-85
2023/09/03 08:29:01;;;;;;;7.07;3.60;;;;;;;;;;4991363;28;20026;-85
2023/09/03 08:31:27;;;;;;;9.48;4.30;;;;;;;;;;4992567;28;20049;-84
2023/09/03 08:33:55;;;;;;;7.70;3.60;;;;;;;;;;4994190;28;20515;-87
2023/09/03 08:36:22;;;;;;;3.58;3.22;;;;;;;;;;4986870;28;20027;-80
2023/09/03 08:38:48;;;;;;;5.15;3.40;;;;;;;;;;4990968;28;20064;-83
2023/09/03 08:41:15;;;;;;;4.80;3.10;;;;;;;;;;4985250;28;20027;-83
2023/09/03 08:43:41;;;;;;;8.02;3.28;;;;;;;;;;4987307;28;20600;-80
2023/09/03 08:46:10;;;;;;;33.17;21.52;;;;;;;;;;4982499;28;20104;-81
2023/09/03 08:48:36;;;;;;;6.68;3.88;;;;;;;;;;4983387;28;20169;-79
2023/09/03 08:51:03;;;;;;;5.07;2.88;;;;;;;;;;4986941;28;20030;-81
2023/09/03 08:53:29;;;;;;;5.65;3.38;;;;;;;;;;4986028;28;20459;-82
2023/09/03 08:55:55;;;;;;;3.50;3.20;;;;;;;;;;4989073;28;20042;-81
2023/09/03 08:58:21;;;;;;;4.60;3.00;;;;;;;;;;4986911;28;20038;-81
2023/09/03 09:00:48;;;;;;;7.60;3.08;;;;;;;;;;4992975;28;20068;-82
2023/09/03 09:03:15;;;;;;;7.05;3.00;;;;;;;;;;4986141;28;20077;-81
2023/09/03 09:05:42;;;;;;;5.93;2.92;;;;;;;;;;4978857;28;20081;-83
2023/09/03 09:08:08;;;;;;;6.60;3.05;;;;;;;;;;4986427;28;20114;-82
2023/09/03 09:10:39;;;;;;;4.78;2.80;;;;;;;;;;4985154;28;20381;-82
2023/09/03 09:13:08;;;;;;;4.30;2.40;;;;;;;;;;4977376;28;20034;-82
2023/09/03 09:15:42;;;;;;;4.60;2.10;;;;;;;;;;4981693;28;20027;-81
2023/09/03 09:18:09;;;;;;;8.68;4.70;;;;;;;;;;4979829;28;20038;-77
2023/09/03 09:20:39;;;;;;;4.63;2.60;;;;;;;;;;4991417;28;20117;-81
2023/09/03 09:23:07;;;;;;;3.30;2.10;;;;;;;;;;4988798;28;20149;-76
2023/09/03 09:25:33;;;;;;;4.68;2.15;;;;;;;;;;4980360;28;20031;-79
2023/09/03 09:28:09;;;;;;;6.25;1.88;;;;;;;;;;4986442;28;20034;-81
2023/09/03 09:30:35;;;;;;;3.45;1.80;;;;;;;;;;4984658;28;20037;-76
2023/09/03 09:33:05;;;;;;;3.45;1.50;;;;;;;;;;5000027;28;20041;-76
2023/09/03 09:35:31;;;;;;;4.50;1.73;;;;;;;;;;4982836;28;20050;-76
2023/09/03 09:38:07;;;;;;;5.93;2.17;;;;;;;;;;4979123;28;21188;-74
2023/09/03 09:40:37;;;;;;;3.80;1.67;;;;;;;;;;4993129;28;20088;-76
2023/09/03 09:43:04;;;;;;;3.10;1.60;;;;;;;;;;4984102;28;20034;-77
2023/09/03 09:45:31;;;;;;;3.17;1.70;;;;;;;;;;4984460;28;22299;-76
2023/09/03 09:48:07;;;;;;;5.93;1.67;;;;;;;;;;4987492;28;20037;-76
2023/09/03 09:50:34;;;;;;;2.65;1.50;;;;;;;;;;5001526;28;20030;-77
2023/09/03 09:53:00;;;;;;;2.53;1.50;;;;;;;;;;4982980;28;20025;-76
2023/09/03 09:55:32;;;;;;;7.45;1.88;;;;;;;;;;4985816;28;20045;-77
2023/09/03 09:57:59;;;;;;;2.67;1.63;;;;;;;;;;4983242;28;20456;-76
2023/09/03 10:00:35;;;;;;;5.63;3.47;;;;;;;;;;4980675;28;20034;-76
2023/09/03 10:03:02;;;;;;;3.42;1.80;;;;;;;;;;4993434;28;20065;-74
2023/09/03 10:05:29;;;;;;;3.25;1.98;;;;;;;;;;4989398;28;20113;-75
2023/09/03 10:07:55;;;;;;;3.97;1.60;;;;;;;;;;4979639;28;20035;-85
2023/09/03 10:10:21;;;;;;;2.30;1.40;;;;;;;;;;5005965;28;20117;-79
2023/09/03 10:12:47;;;;;;;2.88;1.38;;;;;;;;;;4993364;28;20041;-84
2023/09/03 10:15:14;;;;;;;3.85;1.27;;;;;;;;;;4993340;28;20053;-83
2023/09/03 10:17:41;;;;;;;2.72;1.40;;;;;;;;;;5002217;28;20072;-84
2023/09/03 10:20:09;;;;;;;2.25;1.25;;;;;;;;;;4987918;28;20022;-80
2023/09/03 10:22:37;;;;;;;3.47;1.33;;;;;;;;;;4983682;28;20036;-83
2023/09/03 10:25:06;;;;;;;3.70;1.30;;;;;;;;;;4993447;28;20196;-84
2023/09/03 10:27:33;;;;;;;2.30;1.58;;;;;;;;;;4991820;28;20053;-81
2023/09/03 10:30:03;;;;;;;3.45;1.70;;;;;;;;;;4988616;28;20050;-84
2023/09/03 10:32:29;;;;;;;2.55;1.25;;;;;;;;;;4987109;28;20037;-79
2023/09/03 10:34:56;;;;;;;4.85;1.73;;;;;;;;;;4989314;28;20042;-82
2023/09/03 10:37:35;;;;;;;4.85;2.08;;;;;;;;;;4974534;28;20038;-81
2023/09/03 10:40:20;;;;;;;3.20;1.95;;;;;;;;;;4983335;28;20045;-78
2023/09/03 10:42:46;;;;;;;3.15;1.45;;;;;;;;;;4986794;28;20022;-78
2023/09/03 10:45:14;;;;;;;5.38;1.88;;;;;;;;;;4989371;28;20038;-78
2023/09/03 10:48:00;;;;;;;2.33;1.48;;;;;;;;;;4990490;28;20085;-78
2023/09/03 10:50:42;;;;;;;3.97;1.77;;;;;;;;;;4988756;28;20053;-78
2023/09/03 10:53:09;;;;;;;4.55;1.25;;;;;;;;;;4981827;28;20073;-77
2023/09/03 10:55:35;;;;;;;1.27;0.70;;;;;;;;;;4989151;28;20049;-78
2023/09/03 10:58:10;;;;;;;2.53;0.90;;;;;;;;;;4979991;28;20074;-78
2023/09/03 11:00:37;;;;;;;2.55;1.02;;;;;;;;;;4995148;28;20112;-79
2023/09/03 11:03:16;;;;;;;3.08;1.33;;;;;;;;;;4989595;28;20089;-78
2023/09/03 11:06:02;;;;;;;2.78;1.30;;;;;;;;;;4988325;28;20461;-77
2023/09/03 11:08:33;;;;;;;1.42;0.93;;;;;;;;;;4982163;28;20046;-78
2023/09/03 11:10:59;;;;;;;2.58;1.20;;;;;;;;;;4989276;28;20049;-78
2023/09/03 11:13:27;;;;;;;5.05;1.85;;;;;;;;;;4987634;28;20041;-77
2023/09/03 11:15:57;;;;;;;2.45;1.17;;;;;;;;;;4983960;28;20045;-77
2023/09/03 11:18:26;;;;;;;2.95;1.30;;;;;;;;;;4989557;28;20578;-78
2023/09/03 11:20:52;;;;;;;2.80;1.35;;;;;;;;;;4986232;28;20117;-78
2023/09/03 11:23:19;;;;;;;2.40;1.15;;;;;;;;;;4992960;28;20128;-77
2023/09/03 11:25:45;;;;;;;5.28;1.48;;;;;;;;;;4995568;28;20039;-77
2023/09/03 11:28:12;;;;;;;2.83;1.10;;;;;;;;;;4990346;28;20026;-77
2023/09/03 11:30:38;;;;;;;4.05;1.30;;;;;;;;;;4987056;28;20278;-78
2023/09/03 11:33:08;;;;;;;2.03;0.90;;;;;;;;;;4983215;28;20057;-77
2023/09/03 11:35:44;;;;;;;1.25;0.60;;;;;;;;;;4986346;28;20054;-77
2023/09/03 11:38:11;;;;;;;3.22;1.20;;;;;;;;;;4982947;28;20468;-77
2023/09/03 11:40:37;;;;;;;4.63;0.93;;;;;;;;;;4983086;28;20030;-77
2023/09/03 11:43:03;;;;;;;2.28;0.93;;;;;;;;;;4981206;28;20041;-76
2023/09/03 11:45:33;;;;;;;3.92;1.13;;;;;;;;;;4989891;28;20030;-77
2023/09/03 11:47:59;;;;;;;1.25;0.98;;;;;;;;;;4975413;28;20113;-79
2023/09/03 11:50:25;;;;;;;2.55;1.58;;;;;;;;;;5011108;28;20084;-85
2023/09/03 11:52:56;;;;;;;3.53;2.08;;;;;;;;;;4982886;28;20034;-86
2023/09/03 11:55:23;;;;;;;3.58;1.33;;;;;;;;;;4985437;28;20041;-88
2023/09/03 11:57:50;;;;;;;2.03;0.95;;;;;;;;;;4978905;28;20093;-86
2023/09/03 12:00:16;;;;;;;2.42;1.08;;;;;;;;;;4981898;28;20052;-86
2023/09/03 12:02:43;;;;;;;2.25;1.00;;;;;;;;;;5000606;28;20396;-85
2023/09/03 12:05:10;;;;;;;6.43;1.58;;;;;;;;;;4988831;28;20069;-86
2023/09/03 12:07:36;;;;;;;2.88;1.17;;;;;;;;;;4988996;28;20046;-86
2023/09/03 12:10:02;;;;;;;1.77;1.15;;;;;;;;;;4986239;28;20069;-82
2023/09/03 12:12:29;;;;;;;3.78;1.10;;;;;;;;;;4980977;28;20031;-78
2023/09/03 12:14:55;;;;;;;2.38;0.95;;;;;;;;;;4994457;28;20039;-82
2023/09/03 12:17:24;;;;;;;3.35;1.35;;;;;;;;;;4981001;28;20034;-80
2023/09/03 12:19:51;;;;;;;1.92;1.00;;;;;;;;;;4984965;28;20046;-87
2023/09/03 12:22:19;;;;;;;3.45;1.30;;;;;;;;;;4985451;28;20183;-83
2023/09/03 12:24:48;;;;;;;2.42;1.15;;;;;;;;;;4985870;28;20039;-80
2023/09/03 12:27:14;;;;;;;2.95;1.08;;;;;;;;;;4990466;28;20022;-80
2023/09/03 12:29:40;;;;;;;2.85;0.95;;;;;;;;;;4994400;28;20200;-83
2023/09/03 12:32:07;;;;;;;2.28;1.10;;;;;;;;;;4980011;28;20030;-82
2023/09/03 12:34:34;;;;;;;3.33;1.38;;;;;;;;;;4982346;28;20030;-82
2023/09/03 12:37:00;;;;;;;2.40;1.10;;;;;;;;;;4986551;28;20026;-78
2023/09/03 12:39:29;;;;;;;1.85;1.00;;;;;;;;;;4990859;28;20388;-80
2023/09/03 12:41:56;;;;;;;2.08;1.10;;;;;;;;;;4990421;28;20346;-80
2023/09/03 12:44:22;;;;;;;3.15;1.40;;;;;;;;;;4990320;28;20550;-78
2023/09/03 12:46:48;;;;;;;3.25;1.05;;;;;;;;;;4991153;28;20034;-78
2023/09/03 12:49:14;;;;;;;2.30;0.80;;;;;;;;;;4988917;28;20057;-79
2023/09/03 12:51:41;;;;;;;1.98;1.20;;;;;;;;;;4987771;28;20061;-81
2023/09/03 12:54:08;;;;;;;2.60;1.00;;;;;;;;;;4988063;28;20038;-79
2023/09/03 12:56:34;;;;;;;3.33;1.58;;;;;;;;;;4985872;28;20034;-80
2023/09/03 12:59:04;;;;;;;1.95;1.30;;;;;;;;;;4986535;28;20089;-79
2023/09/03 13:01:31;;;;;;;7.03;2.65;;;;;;;;;;4979877;28;20049;-80
2023/09/03 13:03:57;;;;;;;2.13;1.30;;;;;;;;;;4986207;28;20038;-82
2023/09/03 13:06:23;;;;;;;1.15;0.65;;;;;;;;;;4985619;28;20258;-80
2023/09/03 13:08:49;;;;;;;2.75;0.90;;;;;;;;;;4985838;28;20053;-79
2023/09/03 13:11:15;;;;;;;2.15;0.70;;;;;;;;;;4989344;28;20022;-78
2023/09/03 13:13:41;;;;;;;1.35;0.60;;;;;;;;;;4978303;28;20034;-79
2023/09/03 13:16:07;;;;;;;5.40;3.13;;;;;;;;;;4983357;28;20042;-81
2023/09/03 13:18:33;;;;;;;2.35;0.77;;;;;;;;;;4981912;28;20121;-82
2023/09/03 13:21:00;;;;;;;2.17;0.80;;;;;;;;;;4982585;28;20077;-78
2023/09/03 13:23:26;;;;;;;1.00;0.80;;;;;;;;;;4982808;28;20030;-77
2023/09/03 13:25:52;;;;;;;2.83;0.82;;;;;;;;;;4984120;28;20042;-78
2023/09/03 13:28:18;;;;;;;1.80;0.68;;;;;;;;;;4986603;28;20081;-78
2023/09/03 13:30:44;;;;;;;2.33;1.02;;;;;;;;;;4984357;28;20034;-77
2023/09/03 13:33:10;;;;;;;2.58;0.65;;;;;;;;;;4987513;28;20109;-76
2023/09/03 13:35:36;;;;;;;2.05;0.70;;;;;;;;;;4983420;28;20038;-76
2023/09/03 13:38:03;;;;;;;2.22;0.80;;;;;;;;;;4984875;28;20088;-75
2023/09/03 13:40:29;;;;;;;1.45;0.60;;;;;;;;;;4981806;28;20389;-76
2023/09/03 13:42:55;;;;;;;3.15;0.90;;;;;;;;;;4985301;28;20398;-76
2023/09/03 13:45:22;;;;;;;2.63;0.70;;;;;;;;;;4985943;28;20485;-75
2023/09/03 13:47:48;;;;;;;1.83;0.88;;;;;;;;;;4983135;28;20030;-77
2023/09/03 13:50:14;;;;;;;5.03;4.10;;;;;;;;;;4986623;28;20022;-76
2023/09/03 13:52:40;;;;;;;27.38;19.13;;;;;;;;;;4985531;28;20420;-76
2023/09/03 13:55:07;;;;;;;3.72;1.48;;;;;;;;;;4990411;28;20445;-78
2023/09/03 13:57:33;;;;;;;1.75;1.00;;;;;;;;;;4989531;28;20042;-80
2023/09/03 13:59:59;;;;;;;1.40;0.70;;;;;;;;;;4984103;28;20125;-80
2023/09/03 14:02:28;;;;;;;3.28;0.82;;;;;;;;;;4977269;28;20039;-78
2023/09/03 14:04:56;;;;;;;2.58;1.00;;;;;;;;;;4977104;28;20049;-76
2023/09/03 14:07:22;;;;;;;2.03;1.00;;;;;;;;;;4990915;28;20070;-75
2023/09/03 14:09:48;;;;;;;2.83;0.80;;;;;;;;;;4989609;28;20035;-75
2023/09/03 14:12:14;;;;;;;1.00;0.90;;;;;;;;;;4998209;28;20042;-77
2023/09/03 14:14:41;;;;;;;2.00;0.70;;;;;;;;;;4991217;28;20034;-74
2023/09/03 14:17:07;;;;;;;3.78;0.90;;;;;;;;;;4993979;28;20049;-74
2023/09/03 14:19:33;;;;;;;2.60;0.80;;;;;;;;;;4997516;28;20034;-74
2023/09/03 14:22:02;;;;;;;3.28;0.70;;;;;;;;;;5005637;28;20033;-77
2023/09/03 14:24:28;;;;;;;1.63;0.85;;;;;;;;;;5004627;28;20074;-76
2023/09/03 14:26:55;;;;;;;3.03;1.48;;;;;;;;;;5003430;28;20030;-81
2023/09/03 14:29:21;;;;;;;2.45;1.33;;;;;;;;;;5004020;28;20035;-80
2023/09/03 14:31:52;;;;;;;2.67;1.80;;;;;;;;;;4986590;28;20073;-78
2023/09/03 14:34:18;;;;;;;2.47;0.80;;;;;;;;;;4991460;28;20062;-75
2023/09/03 14:36:45;;;;;;;3.80;0.70;;;;;;;;;;4985805;28;20066;-78
2023/09/03 14:39:11;;;;;;;3.97;1.00;;;;;;;;;;4983972;28;20038;-77
2023/09/03 14:41:38;;;;;;;1.65;0.50;;;;;;;;;;4981182;28;20054;-78